Stewartstown, New Hampshire
Current Conditions -  °F | °C
As of 3:52 AM on Wednesday 28 Jan 2015 (Local Time) from KBML Reporting Station
Light Snow Light Snow  
Wind Chill:   Ceiling: 4600
Heat Index:   Visibility: 4mi
Dew Point:   Wind: 5mph
Humidity: 70%   Direction: NA
Pressure: 29.76"   Gusts: NA
Location:  44.8906°N, 71.3771°W
Report Text: KBML 280852Z AUTO VRB04KT 4SM -SN FEW020 OVC046 M13/M18 A2976 RMK AO2 SNE10B35 SLP103 P0000 60000 T11331178 51006
Loading
Personal Weather Stations






























Interactive Weather Map New forecast layout! Learn more

10-Day Weather Forecast

Advertisements
Track Severe Weather on mobile